Desert Aire, Washington
Current Conditions -  °F | °C
As of 8:56 PM on Saturday 22 Nov 2014 (Local Time) from K1YT Reporting Station
Clear Clear  
Wind Chill: 33°   Ceiling: Unl
Heat Index: 33°   Visibility: 10mi
Dew Point: 30°   Wind: 1mph
Humidity: 89%   Direction: NA
Pressure: 30.03"   Gusts: NA
Location:  46.6873°N, 119.887°W
Report Text: K1YT 230456Z AUTO VRB01KT 10SM CLR 01/M01 A3003 RMK AO2 SLPNO T00051011
Loading
Personal Weather Stations






























Interactive Weather Map New forecast layout! Learn more

10-Day Weather Forecast

Advertisements
Track Severe Weather on mobile